Flight Track Log - Related Links

Times and Time Zones

All times are in EDT time to prevent confusion due to time zone crossing. See the RPA3392 flight status page for this flight to view local times or setup timezone preferences in your user account.

Time Position Orientation Groundspeed Altitude Reporting Facility
EDT Latitude Longitude Course Direction KTS MPH feet Rate Location/Type
Wed 10:12:02 PM 38.7672 -77.0267 81° East 172 198 29,000  Level Washington Center
Wed 10:13:00 PM 39.0271 -76.5355 67° East  Level FlightAware Approximate
Wed 10:13:03 PM 38.7175 -76.9964 155° Southeast 201 231 5,200  Level Washington Center
Wed 10:14:00 PM 39.0764 -76.4106 61° Northeast  Level FlightAware Approximate
Wed 10:14:03 PM 38.7478 -76.9039 67° East 176 203 8,100  Level Washington Center
Wed 10:15:00 PM 39.1167 -76.2837 90° East  Level FlightAware Approximate
Wed 10:15:03 PM 38.7947 -76.8142 56° Northeast 210 242 10,600  Level Washington Center
Wed 10:16:00 PM 39.1556 -76.1607 83° East  Level FlightAware Approximate
Wed 10:16:01 PM 38.8844 -76.7892 12° North 239 275 12,400  Level Washington Center
Wed 10:17:00 PM 39.1682 -76.0214 81° East  Level FlightAware Approximate
Wed 10:17:02 PM 38.9642 -76.7394 26° Northeast 270 311 14,600  Level Washington Center
Wed 10:18:02 PM 39.0069 -76.6200 65° Northeast 311 358 16,500 1,785 Climbing Washington Center
Wed 10:19:03 PM 39.0494 -76.5031 65° Northeast 333 383 18,200 1,261 Climbing Washington Center
Wed 10:20:01 PM 39.0964 -76.3753 65° Northeast 354 407 19,000 407 Climbing Washington Center
Wed 10:21:01 PM 39.1386 -76.2500 66° East 370 426 19,000 545 Level Washington Center
Wed 10:22:02 PM 39.1667 -76.1028 76° East 381 438 20,100 1,475 Climbing Washington Center
Wed 10:23:03 PM 39.1839 -75.9531 82° East 397 457 22,000 1,636 Climbing Washington Center
Wed 10:24:03 PM 39.2403 -75.8219 61° Northeast 411 473 23,400 1,462 Climbing Washington Center
Wed 10:25:02 PM 39.3281 -75.7097 45° Northeast 424 488 24,900 1,462 Climbing Washington Center
Wed 10:26:02 PM 39.4178 -75.5889 46° Northeast 436 502 26,300 1,041 Climbing Washington Center
Wed 10:27:03 PM 39.5092 -75.4733 44° Northeast 449 517 27,000 263 Climbing Washington Center
Wed 10:28:42 PM 39.6606 -75.2769 45° Northeast 476 548 27,000  Level New York Center
Wed 10:29:40 PM 39.7467 -75.1503 48° Northeast 476 548 27,000  Level New York Center
Wed 10:30:42 PM 39.8325 -75.0258 48° Northeast 476 548 27,000  Level New York Center
Wed 10:31:40 PM 39.9203 -74.9011 47° Northeast 471 542 27,000  Level New York Center
Wed 10:32:40 PM 39.9972 -74.7892 48° Northeast 464 534 27,000  Level New York Center
Wed 10:33:42 PM 40.0936 -74.6511 48° Northeast 464 534 27,000  Level New York Center
Wed 10:34:42 PM 40.1722 -74.5386 48° Northeast 459 528 27,000  Level New York Center
Wed 10:35:40 PM 40.2697 -74.4242 42° Northeast 467 537 27,000  Level New York Center
Wed 10:36:41 PM 40.3686 -74.3206 39° Northeast 456 525 27,000  Level New York Center
Wed 10:39:11 PM 40.6281 -74.0369 40° Northeast 465 535 27,000 -486 Level Boston Center
Wed 10:40:11 PM 40.7169 -73.9461 38° Northeast 459 528 25,300 -1,500 Descending Boston Center
Wed 10:41:11 PM 40.8097 -73.8467 39° Northeast 440 506 24,000 -650 Descending Boston Center
Wed 10:42:11 PM 40.8986 -73.7333 44° Northeast 435 501 24,000 -400 Level Boston Center
Wed 10:43:11 PM 40.9850 -73.6500 36° Northeast 435 501 23,200 -500 Descending Boston Center
Wed 10:44:11 PM 41.1122 -73.6578 357° North 391 450 23,000 -200 Descending Boston Center
Wed 10:45:11 PM 41.2203 -73.6708 355° North 386 444 22,800 -600 Descending Boston Center
Wed 10:46:11 PM 41.3328 -73.6786 357° North 386 444 21,800 -1,000 Descending Boston Center
Wed 10:47:11 PM 41.4411 -73.6889 356° North 391 450 20,800 -950 Descending Boston Center
Wed 10:48:11 PM 41.5597 -73.6969 357° North 386 444 19,900 -1,600 Descending Boston Center
Wed 10:49:11 PM 41.6514 -73.7069 355° North 371 427 17,600 -2,250 Descending Boston Center
Wed 10:50:11 PM 41.7639 -73.7147 357° North 366 421 15,400 -2,000 Descending Boston Center
Wed 10:51:11 PM 41.8511 -73.7250 355° North 361 415 13,600 -1,950 Descending Boston Center
Wed 10:52:11 PM 41.9636 -73.7356 356° North 361 415 11,500 -1,950 Descending Boston Center
Wed 10:52:31 PM 41.9950 -73.7361 359° North 356 410 11,000 -500 Descending Boston Center
Wed 10:53:11 PM 42.0492 -73.7403 357° North 356 410 11,000  Level Boston Center
Wed 10:53:38 PM 42.0969 -73.7494 352° North 343 395 11,000  Level Boston Center
Wed 10:54:11 PM 42.1531 -73.7506 359° North 346 398 11,000  Level Boston Center
Wed 10:54:33 PM 42.1864 -73.7542 355° North 348 400 11,000 -500 Level Boston Center
Wed 10:55:11 PM 42.2447 -73.7611 355° North 338 389 10,500 -900 Descending Boston Center
Wed 10:55:33 PM 42.2739 -73.7644 355° North 301 346 10,100 -1,700 Descending Boston Center
Wed 10:56:11 PM 42.3281 -73.7683 357° North 310 357 8,800 -2,066 Descending Boston Center
Wed 10:56:34 PM 42.3592 -73.7747 351° North 284 327 8,000 -2,000 Descending Boston Center
Wed 10:57:11 PM 42.4050 -73.7756 359° North 290 334 6,800 -2,300 Descending Boston Center
Wed 10:57:34 PM 42.4361 -73.7819 351° North 274 315 5,700 -2,100 Descending Boston Center
Wed 10:58:11 PM 42.4653 -73.7825 359° North 277 319 4,700 -2,459 Descending Boston Center
Wed 10:58:35 PM 42.5092 -73.7864 356° North 268 308 3,200 -1,700 Descending Boston Center
Wed 10:59:11 PM 42.5550 -73.7903 356° North 271 312 3,000 -537 Descending Boston Center
Wed 10:59:42 PM 42.5883 -73.7967 352° North 259 298 2,600 -700 Descending Boston Center
Wed 11:00:11 PM 42.6089 -73.8025 348° North 266 306 2,300 -621 Descending Boston Center

Login

Don't have an account? Register now (free) for customized features, flight alerts, and more!